sensor_id;sensor_type;location;lat;lon;timestamp;P1;durP1;ratioP1;P2;durP2;ratioP2
27201;SDS011;14717;46.924;15.474;2023-04-25T00:00:28;5.82;;;3.20;;
27201;SDS011;14717;46.924;15.474;2023-04-25T00:02:54;5.63;;;3.67;;
27201;SDS011;14717;46.924;15.474;2023-04-25T00:05:21;8.10;;;3.47;;
27201;SDS011;14717;46.924;15.474;2023-04-25T00:07:48;5.88;;;3.30;;
27201;SDS011;14717;46.924;15.474;2023-04-25T00:10:14;5.70;;;3.50;;
27201;SDS011;14717;46.924;15.474;2023-04-25T00:12:40;6.22;;;3.47;;
27201;SDS011;14717;46.924;15.474;2023-04-25T00:15:06;6.50;;;3.30;;
27201;SDS011;14717;46.924;15.474;2023-04-25T00:17:32;5.72;;;3.03;;
27201;SDS011;14717;46.924;15.474;2023-04-25T00:19:59;4.72;;;2.90;;
27201;SDS011;14717;46.924;15.474;2023-04-25T00:22:25;6.15;;;3.28;;
27201;SDS011;14717;46.924;15.474;2023-04-25T00:24:50;5.03;;;2.85;;
27201;SDS011;14717;46.924;15.474;2023-04-25T00:27:18;4.68;;;2.80;;
27201;SDS011;14717;46.924;15.474;2023-04-25T00:29:43;4.47;;;3.08;;
27201;SDS011;14717;46.924;15.474;2023-04-25T00:32:08;5.18;;;3.00;;
27201;SDS011;14717;46.924;15.474;2023-04-25T00:34:34;5.88;;;3.33;;
27201;SDS011;14717;46.924;15.474;2023-04-25T00:37:00;4.50;;;2.80;;
27201;SDS011;14717;46.924;15.474;2023-04-25T00:39:27;5.35;;;3.25;;
27201;SDS011;14717;46.924;15.474;2023-04-25T00:41:52;7.70;;;3.40;;
27201;SDS011;14717;46.924;15.474;2023-04-25T00:44:19;4.45;;;2.40;;
27201;SDS011;14717;46.924;15.474;2023-04-25T00:46:46;5.13;;;2.53;;
27201;SDS011;14717;46.924;15.474;2023-04-25T00:49:12;4.13;;;2.80;;
27201;SDS011;14717;46.924;15.474;2023-04-25T00:51:40;4.88;;;2.70;;
27201;SDS011;14717;46.924;15.474;2023-04-25T00:54:06;4.15;;;2.40;;
27201;SDS011;14717;46.924;15.474;2023-04-25T00:56:32;3.72;;;2.35;;
27201;SDS011;14717;46.924;15.474;2023-04-25T00:58:57;3.92;;;2.17;;
27201;SDS011;14717;46.924;15.474;2023-04-25T01:01:23;5.93;;;2.72;;
27201;SDS011;14717;46.924;15.474;2023-04-25T01:03:48;6.30;;;2.67;;
27201;SDS011;14717;46.924;15.474;2023-04-25T01:06:15;4.47;;;2.63;;
27201;SDS011;14717;46.924;15.474;2023-04-25T01:08:41;4.70;;;2.45;;
27201;SDS011;14717;46.924;15.474;2023-04-25T01:11:06;4.00;;;2.30;;
27201;SDS011;14717;46.924;15.474;2023-04-25T01:13:32;4.40;;;1.90;;
27201;SDS011;14717;46.924;15.474;2023-04-25T01:18:24;3.88;;;2.05;;
27201;SDS011;14717;46.924;15.474;2023-04-25T01:20:50;4.90;;;2.13;;
27201;SDS011;14717;46.924;15.474;2023-04-25T01:23:17;4.22;;;2.38;;
27201;SDS011;14717;46.924;15.474;2023-04-25T01:25:43;4.75;;;2.22;;
27201;SDS011;14717;46.924;15.474;2023-04-25T01:28:09;3.92;;;2.22;;
27201;SDS011;14717;46.924;15.474;2023-04-25T01:30:35;5.55;;;2.50;;
27201;SDS011;14717;46.924;15.474;2023-04-25T01:33:00;7.45;;;2.65;;
27201;SDS011;14717;46.924;15.474;2023-04-25T01:35:27;4.38;;;2.58;;
27201;SDS011;14717;46.924;15.474;2023-04-25T01:37:53;3.65;;;2.47;;
27201;SDS011;14717;46.924;15.474;2023-04-25T01:40:18;4.70;;;2.42;;
27201;SDS011;14717;46.924;15.474;2023-04-25T01:42:47;3.97;;;2.70;;
27201;SDS011;14717;46.924;15.474;2023-04-25T01:45:12;3.75;;;2.45;;
27201;SDS011;14717;46.924;15.474;2023-04-25T01:47:38;4.03;;;2.40;;
27201;SDS011;14717;46.924;15.474;2023-04-25T01:50:05;4.57;;;2.60;;
27201;SDS011;14717;46.924;15.474;2023-04-25T01:52:32;4.00;;;2.17;;
27201;SDS011;14717;46.924;15.474;2023-04-25T01:54:59;4.45;;;2.35;;
27201;SDS011;14717;46.924;15.474;2023-04-25T01:57:26;3.40;;;2.47;;
27201;SDS011;14717;46.924;15.474;2023-04-25T01:59:52;3.80;;;2.35;;
27201;SDS011;14717;46.924;15.474;2023-04-25T02:02:23;3.70;;;2.40;;
27201;SDS011;14717;46.924;15.474;2023-04-25T02:04:48;4.47;;;2.65;;
27201;SDS011;14717;46.924;15.474;2023-04-25T02:07:14;3.25;;;2.40;;
27201;SDS011;14717;46.924;15.474;2023-04-25T02:09:39;5.30;;;2.85;;
27201;SDS011;14717;46.924;15.474;2023-04-25T02:12:05;6.97;;;3.15;;
27201;SDS011;14717;46.924;15.474;2023-04-25T02:14:32;5.25;;;2.80;;
27201;SDS011;14717;46.924;15.474;2023-04-25T02:16:57;4.35;;;2.30;;
27201;SDS011;14717;46.924;15.474;2023-04-25T02:19:23;3.78;;;2.20;;
27201;SDS011;14717;46.924;15.474;2023-04-25T02:21:48;5.75;;;2.95;;
27201;SDS011;14717;46.924;15.474;2023-04-25T02:24:14;5.88;;;2.90;;
27201;SDS011;14717;46.924;15.474;2023-04-25T02:26:39;5.35;;;2.70;;
27201;SDS011;14717;46.924;15.474;2023-04-25T02:29:04;6.30;;;3.08;;
27201;SDS011;14717;46.924;15.474;2023-04-25T02:31:30;5.13;;;2.85;;
27201;SDS011;14717;46.924;15.474;2023-04-25T02:33:56;5.95;;;2.50;;
27201;SDS011;14717;46.924;15.474;2023-04-25T02:36:21;5.43;;;3.00;;
27201;SDS011;14717;46.924;15.474;2023-04-25T02:38:46;3.55;;;2.33;;
27201;SDS011;14717;46.924;15.474;2023-04-25T02:41:12;3.58;;;2.33;;
27201;SDS011;14717;46.924;15.474;2023-04-25T02:43:37;3.63;;;2.20;;
27201;SDS011;14717;46.924;15.474;2023-04-25T02:46:02;3.17;;;2.10;;
27201;SDS011;14717;46.924;15.474;2023-04-25T02:48:28;3.15;;;2.00;;
27201;SDS011;14717;46.924;15.474;2023-04-25T02:50:54;4.20;;;2.42;;
27201;SDS011;14717;46.924;15.474;2023-04-25T02:53:19;5.53;;;2.00;;
27201;SDS011;14717;46.924;15.474;2023-04-25T02:55:45;3.72;;;2.00;;
27201;SDS011;14717;46.924;15.474;2023-04-25T02:58:10;2.72;;;1.70;;
27201;SDS011;14717;46.924;15.474;2023-04-25T03:00:36;3.40;;;1.80;;
27201;SDS011;14717;46.924;15.474;2023-04-25T03:03:01;3.50;;;1.88;;
27201;SDS011;14717;46.924;15.474;2023-04-25T03:05:26;3.65;;;2.22;;
27201;SDS011;14717;46.924;15.474;2023-04-25T03:07:52;3.67;;;2.13;;
27201;SDS011;14717;46.924;15.474;2023-04-25T03:10:17;3.10;;;1.90;;
27201;SDS011;14717;46.924;15.474;2023-04-25T03:12:42;4.22;;;2.20;;
27201;SDS011;14717;46.924;15.474;2023-04-25T03:15:08;5.07;;;1.77;;
27201;SDS011;14717;46.924;15.474;2023-04-25T03:17:33;2.70;;;1.60;;
27201;SDS011;14717;46.924;15.474;2023-04-25T03:19:59;3.55;;;2.05;;
27201;SDS011;14717;46.924;15.474;2023-04-25T03:22:24;13.52;;;2.38;;
27201;SDS011;14717;46.924;15.474;2023-04-25T03:24:50;27.80;;;3.97;;
27201;SDS011;14717;46.924;15.474;2023-04-25T03:27:15;44.15;;;4.55;;
27201;SDS011;14717;46.924;15.474;2023-04-25T03:29:41;3.58;;;2.38;;
27201;SDS011;14717;46.924;15.474;2023-04-25T03:32:06;5.28;;;2.47;;
27201;SDS011;14717;46.924;15.474;2023-04-25T03:34:32;9.20;;;2.50;;
27201;SDS011;14717;46.924;15.474;2023-04-25T03:36:57;7.70;;;2.58;;
27201;SDS011;14717;46.924;15.474;2023-04-25T03:39:24;4.85;;;2.38;;
27201;SDS011;14717;46.924;15.474;2023-04-25T03:41:49;3.20;;;2.00;;
27201;SDS011;14717;46.924;15.474;2023-04-25T03:44:15;3.55;;;2.15;;
27201;SDS011;14717;46.924;15.474;2023-04-25T03:46:40;6.68;;;2.38;;
27201;SDS011;14717;46.924;15.474;2023-04-25T03:49:05;44.85;;;5.07;;
27201;SDS011;14717;46.924;15.474;2023-04-25T03:51:31;6.03;;;2.55;;
27201;SDS011;14717;46.924;15.474;2023-04-25T03:53:56;14.65;;;2.92;;
27201;SDS011;14717;46.924;15.474;2023-04-25T03:56:23;29.65;;;4.05;;
27201;SDS011;14717;46.924;15.474;2023-04-25T03:58:48;3.38;;;2.00;;
27201;SDS011;14717;46.924;15.474;2023-04-25T04:01:14;5.25;;;2.15;;
27201;SDS011;14717;46.924;15.474;2023-04-25T04:03:39;29.02;;;3.05;;
27201;SDS011;14717;46.924;15.474;2023-04-25T04:06:05;28.98;;;2.95;;
27201;SDS011;14717;46.924;15.474;2023-04-25T04:08:32;4.07;;;2.17;;
27201;SDS011;14717;46.924;15.474;2023-04-25T04:10:58;33.08;;;3.35;;
27201;SDS011;14717;46.924;15.474;2023-04-25T04:13:25;29.33;;;2.90;;
27201;SDS011;14717;46.924;15.474;2023-04-25T04:15:51;102.20;;;9.90;;
27201;SDS011;14717;46.924;15.474;2023-04-25T04:18:16;37.03;;;3.33;;
27201;SDS011;14717;46.924;15.474;2023-04-25T04:20:42;80.55;;;6.45;;
27201;SDS011;14717;46.924;15.474;2023-04-25T04:23:07;49.63;;;4.80;;
27201;SDS011;14717;46.924;15.474;2023-04-25T04:25:33;65.75;;;6.05;;
27201;SDS011;14717;46.924;15.474;2023-04-25T04:27:59;90.03;;;6.07;;
27201;SDS011;14717;46.924;15.474;2023-04-25T04:30:25;17.85;;;2.53;;
27201;SDS011;14717;46.924;15.474;2023-04-25T04:32:54;7.35;;;1.98;;
27201;SDS011;14717;46.924;15.474;2023-04-25T04:35:21;41.55;;;4.65;;
27201;SDS011;14717;46.924;15.474;2023-04-25T04:37:46;79.20;;;6.47;;
27201;SDS011;14717;46.924;15.474;2023-04-25T04:40:13;34.58;;;6.65;;
27201;SDS011;14717;46.924;15.474;2023-04-25T04:42:40;96.70;;;9.75;;
27201;SDS011;14717;46.924;15.474;2023-04-25T04:45:06;69.97;;;7.07;;
27201;SDS011;14717;46.924;15.474;2023-04-25T04:47:32;51.85;;;4.38;;
27201;SDS011;14717;46.924;15.474;2023-04-25T04:52:24;33.97;;;3.75;;
27201;SDS011;14717;46.924;15.474;2023-04-25T04:54:49;5.70;;;2.75;;
27201;SDS011;14717;46.924;15.474;2023-04-25T04:57:15;8.73;;;2.58;;
27201;SDS011;14717;46.924;15.474;2023-04-25T04:59:41;11.98;;;2.60;;
27201;SDS011;14717;46.924;15.474;2023-04-25T05:02:07;3.53;;;2.10;;
27201;SDS011;14717;46.924;15.474;2023-04-25T05:04:32;6.13;;;2.40;;
27201;SDS011;14717;46.924;15.474;2023-04-25T05:06:58;16.52;;;2.50;;
27201;SDS011;14717;46.924;15.474;2023-04-25T05:09:23;6.95;;;2.38;;
27201;SDS011;14717;46.924;15.474;2023-04-25T05:11:50;3.42;;;2.30;;
27201;SDS011;14717;46.924;15.474;2023-04-25T05:14:17;4.43;;;2.30;;
27201;SDS011;14717;46.924;15.474;2023-04-25T05:16:43;11.40;;;2.50;;
27201;SDS011;14717;46.924;15.474;2023-04-25T05:19:08;4.55;;;2.40;;
27201;SDS011;14717;46.924;15.474;2023-04-25T05:21:34;8.85;;;2.97;;
27201;SDS011;14717;46.924;15.474;2023-04-25T05:23:59;40.97;;;6.05;;
27201;SDS011;14717;46.924;15.474;2023-04-25T05:26:25;48.08;;;5.65;;
27201;SDS011;14717;46.924;15.474;2023-04-25T05:28:50;7.10;;;3.50;;
27201;SDS011;14717;46.924;15.474;2023-04-25T05:31:16;15.02;;;3.53;;
27201;SDS011;14717;46.924;15.474;2023-04-25T05:33:41;14.32;;;3.35;;
27201;SDS011;14717;46.924;15.474;2023-04-25T05:36:07;29.63;;;3.75;;
27201;SDS011;14717;46.924;15.474;2023-04-25T05:38:32;5.38;;;2.70;;
27201;SDS011;14717;46.924;15.474;2023-04-25T05:40:58;16.83;;;2.75;;
27201;SDS011;14717;46.924;15.474;2023-04-25T05:43:23;6.22;;;2.25;;
27201;SDS011;14717;46.924;15.474;2023-04-25T05:45:49;4.00;;;2.45;;
27201;SDS011;14717;46.924;15.474;2023-04-25T05:48:14;4.20;;;2.30;;
27201;SDS011;14717;46.924;15.474;2023-04-25T05:50:39;16.35;;;4.55;;
27201;SDS011;14717;46.924;15.474;2023-04-25T05:53:05;7.40;;;3.50;;
27201;SDS011;14717;46.924;15.474;2023-04-25T05:55:30;5.22;;;3.00;;
27201;SDS011;14717;46.924;15.474;2023-04-25T05:57:56;4.60;;;2.80;;
27201;SDS011;14717;46.924;15.474;2023-04-25T06:00:21;4.13;;;2.60;;
27201;SDS011;14717;46.924;15.474;2023-04-25T06:02:47;5.47;;;3.10;;
27201;SDS011;14717;46.924;15.474;2023-04-25T06:05:13;4.88;;;2.80;;
27201;SDS011;14717;46.924;15.474;2023-04-25T06:07:39;3.85;;;2.45;;
27201;SDS011;14717;46.924;15.474;2023-04-25T06:10:04;4.55;;;1.80;;
27201;SDS011;14717;46.924;15.474;2023-04-25T06:12:32;2.90;;;1.88;;
27201;SDS011;14717;46.924;15.474;2023-04-25T06:14:58;2.58;;;1.77;;
27201;SDS011;14717;46.924;15.474;2023-04-25T06:17:23;2.65;;;1.77;;
27201;SDS011;14717;46.924;15.474;2023-04-25T06:19:49;2.83;;;1.60;;
27201;SDS011;14717;46.924;15.474;2023-04-25T06:22:14;3.70;;;1.67;;
27201;SDS011;14717;46.924;15.474;2023-04-25T06:24:40;4.72;;;1.80;;
27201;SDS011;14717;46.924;15.474;2023-04-25T06:27:05;3.15;;;2.05;;
27201;SDS011;14717;46.924;15.474;2023-04-25T06:29:30;4.30;;;2.90;;
27201;SDS011;14717;46.924;15.474;2023-04-25T06:31:56;4.05;;;2.20;;
27201;SDS011;14717;46.924;15.474;2023-04-25T06:34:22;4.10;;;2.00;;
27201;SDS011;14717;46.924;15.474;2023-04-25T06:36:47;2.45;;;1.80;;
27201;SDS011;14717;46.924;15.474;2023-04-25T06:39:12;3.95;;;1.95;;
27201;SDS011;14717;46.924;15.474;2023-04-25T06:41:38;2.70;;;1.92;;
27201;SDS011;14717;46.924;15.474;2023-04-25T06:44:03;3.60;;;2.25;;
27201;SDS011;14717;46.924;15.474;2023-04-25T06:46:29;2.40;;;1.52;;
27201;SDS011;14717;46.924;15.474;2023-04-25T06:48:54;3.33;;;1.73;;
27201;SDS011;14717;46.924;15.474;2023-04-25T06:51:20;4.20;;;2.20;;
27201;SDS011;14717;46.924;15.474;2023-04-25T06:53:45;3.70;;;2.65;;
27201;SDS011;14717;46.924;15.474;2023-04-25T06:56:10;4.03;;;2.35;;
27201;SDS011;14717;46.924;15.474;2023-04-25T06:58:36;4.03;;;2.03;;
27201;SDS011;14717;46.924;15.474;2023-04-25T07:01:01;3.72;;;2.33;;
27201;SDS011;14717;46.924;15.474;2023-04-25T07:03:27;3.50;;;1.83;;
27201;SDS011;14717;46.924;15.474;2023-04-25T07:05:52;4.50;;;1.80;;
27201;SDS011;14717;46.924;15.474;2023-04-25T07:08:17;2.75;;;1.60;;
27201;SDS011;14717;46.924;15.474;2023-04-25T07:10:43;2.80;;;1.33;;
27201;SDS011;14717;46.924;15.474;2023-04-25T07:13:08;2.10;;;1.30;;
27201;SDS011;14717;46.924;15.474;2023-04-25T07:15:33;3.15;;;1.48;;
27201;SDS011;14717;46.924;15.474;2023-04-25T07:17:59;3.55;;;1.35;;
27201;SDS011;14717;46.924;15.474;2023-04-25T07:20:25;2.03;;;1.13;;
27201;SDS011;14717;46.924;15.474;2023-04-25T07:22:52;1.63;;;1.20;;
27201;SDS011;14717;46.924;15.474;2023-04-25T07:25:18;1.92;;;1.35;;
27201;SDS011;14717;46.924;15.474;2023-04-25T07:27:43;1.98;;;1.13;;
27201;SDS011;14717;46.924;15.474;2023-04-25T07:30:09;1.80;;;1.15;;
27201;SDS011;14717;46.924;15.474;2023-04-25T07:32:35;2.28;;;1.30;;
27201;SDS011;14717;46.924;15.474;2023-04-25T07:35:00;2.65;;;1.20;;
27201;SDS011;14717;46.924;15.474;2023-04-25T07:37:26;6.20;;;1.48;;
27201;SDS011;14717;46.924;15.474;2023-04-25T07:39:52;1.92;;;1.10;;
27201;SDS011;14717;46.924;15.474;2023-04-25T07:42:17;3.42;;;1.30;;
27201;SDS011;14717;46.924;15.474;2023-04-25T07:44:43;2.58;;;1.33;;
27201;SDS011;14717;46.924;15.474;2023-04-25T07:47:09;2.67;;;1.38;;
27201;SDS011;14717;46.924;15.474;2023-04-25T07:52:00;4.55;;;1.27;;
27201;SDS011;14717;46.924;15.474;2023-04-25T07:54:26;2.67;;;1.50;;
27201;SDS011;14717;46.924;15.474;2023-04-25T07:56:51;3.85;;;1.63;;
27201;SDS011;14717;46.924;15.474;2023-04-25T07:59:17;2.50;;;1.83;;
27201;SDS011;14717;46.924;15.474;2023-04-25T08:01:42;3.03;;;1.70;;
27201;SDS011;14717;46.924;15.474;2023-04-25T08:04:07;3.25;;;1.77;;
27201;SDS011;14717;46.924;15.474;2023-04-25T08:06:33;2.72;;;1.60;;
27201;SDS011;14717;46.924;15.474;2023-04-25T08:08:58;3.67;;;1.60;;
27201;SDS011;14717;46.924;15.474;2023-04-25T08:11:23;3.42;;;1.50;;
27201;SDS011;14717;46.924;15.474;2023-04-25T08:13:50;4.63;;;1.60;;
27201;SDS011;14717;46.924;15.474;2023-04-25T08:16:15;2.50;;;1.30;;
27201;SDS011;14717;46.924;15.474;2023-04-25T08:18:40;2.38;;;1.05;;
27201;SDS011;14717;46.924;15.474;2023-04-25T08:21:06;1.77;;;1.00;;
27201;SDS011;14717;46.924;15.474;2023-04-25T08:23:33;2.58;;;1.13;;
27201;SDS011;14717;46.924;15.474;2023-04-25T08:28:24;1.77;;;0.90;;
27201;SDS011;14717;46.924;15.474;2023-04-25T08:33:15;1.23;;;0.73;;
27201;SDS011;14717;46.924;15.474;2023-04-25T08:38:05;1.50;;;1.00;;
27201;SDS011;14717;46.924;15.474;2023-04-25T08:43:00;2.45;;;1.27;;
27201;SDS011;14717;46.924;15.474;2023-04-25T08:45:28;1.13;;;0.90;;
27201;SDS011;14717;46.924;15.474;2023-04-25T08:47:57;2.30;;;1.10;;
27201;SDS011;14717;46.924;15.474;2023-04-25T08:50:23;1.65;;;0.88;;
27201;SDS011;14717;46.924;15.474;2023-04-25T08:52:51;2.00;;;0.80;;
27201;SDS011;14717;46.924;15.474;2023-04-25T08:55:20;1.55;;;0.70;;
27201;SDS011;14717;46.924;15.474;2023-04-25T08:57:46;2.28;;;0.80;;
27201;SDS011;14717;46.924;15.474;2023-04-25T09:02:42;1.27;;;0.80;;
27201;SDS011;14717;46.924;15.474;2023-04-25T09:05:08;2.38;;;0.63;;
27201;SDS011;14717;46.924;15.474;2023-04-25T09:07:34;1.70;;;0.95;;
27201;SDS011;14717;46.924;15.474;2023-04-25T09:12:28;1.58;;;0.88;;
27201;SDS011;14717;46.924;15.474;2023-04-25T09:17:31;1.50;;;0.90;;
27201;SDS011;14717;46.924;15.474;2023-04-25T09:22:30;1.58;;;0.80;;
27201;SDS011;14717;46.924;15.474;2023-04-25T09:27:21;1.23;;;0.87;;
27201;SDS011;14717;46.924;15.474;2023-04-25T09:29:48;1.50;;;0.90;;
27201;SDS011;14717;46.924;15.474;2023-04-25T09:32:21;2.22;;;0.73;;
27201;SDS011;14717;46.924;15.474;2023-04-25T09:34:52;1.77;;;1.00;;
27201;SDS011;14717;46.924;15.474;2023-04-25T09:37:25;1.50;;;0.90;;
27201;SDS011;14717;46.924;15.474;2023-04-25T09:39:53;2.45;;;0.80;;
27201;SDS011;14717;46.924;15.474;2023-04-25T09:42:24;1.38;;;0.90;;
27201;SDS011;14717;46.924;15.474;2023-04-25T09:44:52;1.33;;;0.63;;
27201;SDS011;14717;46.924;15.474;2023-04-25T09:47:18;2.75;;;1.00;;
27201;SDS011;14717;46.924;15.474;2023-04-25T09:49:46;1.58;;;0.70;;
27201;SDS011;14717;46.924;15.474;2023-04-25T09:54:42;1.45;;;0.90;;
27201;SDS011;14717;46.924;15.474;2023-04-25T09:59:36;2.08;;;1.00;;
27201;SDS011;14717;46.924;15.474;2023-04-25T10:02:05;0.63;;;0.63;;
27201;SDS011;14717;46.924;15.474;2023-04-25T10:04:33;1.73;;;1.00;;
27201;SDS011;14717;46.924;15.474;2023-04-25T10:07:00;1.60;;;0.82;;
27201;SDS011;14717;46.924;15.474;2023-04-25T10:09:28;1.45;;;0.80;;
27201;SDS011;14717;46.924;15.474;2023-04-25T10:11:58;1.60;;;0.90;;
27201;SDS011;14717;46.924;15.474;2023-04-25T10:14:24;1.73;;;1.00;;
27201;SDS011;14717;46.924;15.474;2023-04-25T10:16:50;1.92;;;0.93;;
27201;SDS011;14717;46.924;15.474;2023-04-25T10:19:18;2.95;;;1.10;;
27201;SDS011;14717;46.924;15.474;2023-04-25T10:21:51;2.25;;;0.90;;
27201;SDS011;14717;46.924;15.474;2023-04-25T10:24:28;2.03;;;0.85;;
27201;SDS011;14717;46.924;15.474;2023-04-25T10:26:54;0.98;;;0.65;;
27201;SDS011;14717;46.924;15.474;2023-04-25T10:29:27;3.33;;;0.90;;
27201;SDS011;14717;46.924;15.474;2023-04-25T10:31:52;1.38;;;0.80;;
27201;SDS011;14717;46.924;15.474;2023-04-25T10:34:19;1.58;;;0.80;;
27201;SDS011;14717;46.924;15.474;2023-04-25T10:36:50;2.25;;;0.80;;
27201;SDS011;14717;46.924;15.474;2023-04-25T10:39:23;3.88;;;1.00;;
27201;SDS011;14717;46.924;15.474;2023-04-25T10:41:52;1.75;;;0.77;;
27201;SDS011;14717;46.924;15.474;2023-04-25T10:44:18;3.20;;;1.10;;
27201;SDS011;14717;46.924;15.474;2023-04-25T10:46:44;1.42;;;0.93;;
27201;SDS011;14717;46.924;15.474;2023-04-25T10:49:10;1.58;;;1.00;;
27201;SDS011;14717;46.924;15.474;2023-04-25T10:51:36;4.25;;;1.15;;
27201;SDS011;14717;46.924;15.474;2023-04-25T10:54:05;2.28;;;1.20;;
27201;SDS011;14717;46.924;15.474;2023-04-25T11:01:29;1.75;;;0.90;;
27201;SDS011;14717;46.924;15.474;2023-04-25T11:04:03;4.50;;;1.17;;
27201;SDS011;14717;46.924;15.474;2023-04-25T11:06:41;2.30;;;1.02;;
27201;SDS011;14717;46.924;15.474;2023-04-25T11:09:17;1.45;;;0.98;;
27201;SDS011;14717;46.924;15.474;2023-04-25T11:11:42;1.58;;;0.90;;
27201;SDS011;14717;46.924;15.474;2023-04-25T11:14:07;2.88;;;1.15;;
27201;SDS011;14717;46.924;15.474;2023-04-25T11:16:33;2.33;;;1.02;;
27201;SDS011;14717;46.924;15.474;2023-04-25T11:18:58;1.80;;;0.90;;
27201;SDS011;14717;46.924;15.474;2023-04-25T11:21:26;1.95;;;0.90;;
27201;SDS011;14717;46.924;15.474;2023-04-25T11:23:56;4.20;;;1.10;;
27201;SDS011;14717;46.924;15.474;2023-04-25T11:26:22;1.67;;;0.80;;
27201;SDS011;14717;46.924;15.474;2023-04-25T11:28:49;3.28;;;1.20;;
27201;SDS011;14717;46.924;15.474;2023-04-25T11:31:15;1.45;;;0.90;;
27201;SDS011;14717;46.924;15.474;2023-04-25T11:33:40;0.98;;;0.70;;
27201;SDS011;14717;46.924;15.474;2023-04-25T11:36:06;1.30;;;0.88;;
27201;SDS011;14717;46.924;15.474;2023-04-25T11:38:31;1.55;;;0.93;;
27201;SDS011;14717;46.924;15.474;2023-04-25T11:40:57;1.50;;;0.90;;
27201;SDS011;14717;46.924;15.474;2023-04-25T11:43:23;2.92;;;1.08;;
27201;SDS011;14717;46.924;15.474;2023-04-25T11:45:49;1.90;;;1.10;;
27201;SDS011;14717;46.924;15.474;2023-04-25T11:48:15;2.00;;;1.05;;
27201;SDS011;14717;46.924;15.474;2023-04-25T11:50:41;1.15;;;0.93;;
27201;SDS011;14717;46.924;15.474;2023-04-25T11:53:07;2.08;;;1.00;;
27201;SDS011;14717;46.924;15.474;2023-04-25T11:55:33;2.63;;;0.95;;
27201;SDS011;14717;46.924;15.474;2023-04-25T11:57:59;1.65;;;1.20;;
27201;SDS011;14717;46.924;15.474;2023-04-25T12:00:26;2.15;;;1.13;;
27201;SDS011;14717;46.924;15.474;2023-04-25T12:02:53;2.15;;;1.10;;
27201;SDS011;14717;46.924;15.474;2023-04-25T12:05:19;2.58;;;1.00;;
27201;SDS011;14717;46.924;15.474;2023-04-25T12:07:48;2.20;;;0.90;;
27201;SDS011;14717;46.924;15.474;2023-04-25T12:10:14;1.65;;;0.82;;
27201;SDS011;14717;46.924;15.474;2023-04-25T12:12:42;4.38;;;0.90;;
27201;SDS011;14717;46.924;15.474;2023-04-25T12:17:39;2.30;;;1.00;;
27201;SDS011;14717;46.924;15.474;2023-04-25T12:20:08;3.00;;;0.90;;
27201;SDS011;14717;46.924;15.474;2023-04-25T12:22:35;2.13;;;0.93;;
27201;SDS011;14717;46.924;15.474;2023-04-25T12:25:01;2.50;;;0.93;;
27201;SDS011;14717;46.924;15.474;2023-04-25T12:27:30;2.08;;;1.17;;
27201;SDS011;14717;46.924;15.474;2023-04-25T12:29:56;2.47;;;1.00;;
27201;SDS011;14717;46.924;15.474;2023-04-25T12:32:22;1.60;;;0.80;;
27201;SDS011;14717;46.924;15.474;2023-04-25T12:37:13;0.93;;;0.70;;
27201;SDS011;14717;46.924;15.474;2023-04-25T12:39:39;1.73;;;0.90;;
27201;SDS011;14717;46.924;15.474;2023-04-25T12:44:32;2.08;;;1.30;;
27201;SDS011;14717;46.924;15.474;2023-04-25T12:49:24;1.17;;;0.80;;
27201;SDS011;14717;46.924;15.474;2023-04-25T12:54:16;1.60;;;0.98;;
27201;SDS011;14717;46.924;15.474;2023-04-25T12:59:07;0.80;;;0.80;;
27201;SDS011;14717;46.924;15.474;2023-04-25T13:03:58;1.70;;;0.95;;
27201;SDS011;14717;46.924;15.474;2023-04-25T13:08:49;0.70;;;0.55;;
27201;SDS011;14717;46.924;15.474;2023-04-25T13:13:40;1.23;;;0.67;;
27201;SDS011;14717;46.924;15.474;2023-04-25T13:18:31;0.88;;;0.70;;
27201;SDS011;14717;46.924;15.474;2023-04-25T13:23:23;0.80;;;0.60;;
27201;SDS011;14717;46.924;15.474;2023-04-25T13:25:49;0.98;;;0.80;;
27201;SDS011;14717;46.924;15.474;2023-04-25T13:30:41;11.27;;;5.72;;
27201;SDS011;14717;46.924;15.474;2023-04-25T13:35:32;1.15;;;0.70;;
27201;SDS011;14717;46.924;15.474;2023-04-25T13:37:59;1.90;;;1.00;;
27201;SDS011;14717;46.924;15.474;2023-04-25T13:42:51;2.08;;;0.82;;
27201;SDS011;14717;46.924;15.474;2023-04-25T13:47:42;1.42;;;0.68;;
27201;SDS011;14717;46.924;15.474;2023-04-25T13:52:33;1.33;;;0.82;;
27201;SDS011;14717;46.924;15.474;2023-04-25T13:54:58;1.10;;;0.70;;
27201;SDS011;14717;46.924;15.474;2023-04-25T13:57:24;1.70;;;0.85;;
27201;SDS011;14717;46.924;15.474;2023-04-25T13:59:50;1.23;;;0.98;;
27201;SDS011;14717;46.924;15.474;2023-04-25T14:04:41;2.23;;;0.80;;
27201;SDS011;14717;46.924;15.474;2023-04-25T14:09:32;1.77;;;0.75;;
27201;SDS011;14717;46.924;15.474;2023-04-25T14:14:23;1.33;;;1.20;;
27201;SDS011;14717;46.924;15.474;2023-04-25T14:16:49;3.58;;;1.02;;
27201;SDS011;14717;46.924;15.474;2023-04-25T14:19:15;1.60;;;0.82;;
27201;SDS011;14717;46.924;15.474;2023-04-25T14:21:41;1.23;;;0.70;;
27201;SDS011;14717;46.924;15.474;2023-04-25T14:24:10;1.42;;;0.80;;
27201;SDS011;14717;46.924;15.474;2023-04-25T14:26:36;2.20;;;1.30;;
27201;SDS011;14717;46.924;15.474;2023-04-25T14:29:01;2.47;;;0.80;;
27201;SDS011;14717;46.924;15.474;2023-04-25T14:31:28;1.77;;;0.90;;
27201;SDS011;14717;46.924;15.474;2023-04-25T14:33:53;1.60;;;0.90;;
27201;SDS011;14717;46.924;15.474;2023-04-25T14:36:19;2.03;;;0.80;;
27201;SDS011;14717;46.924;15.474;2023-04-25T14:38:45;2.97;;;1.05;;
27201;SDS011;14717;46.924;15.474;2023-04-25T14:41:10;1.25;;;0.70;;
27201;SDS011;14717;46.924;15.474;2023-04-25T14:43:36;1.50;;;0.98;;
27201;SDS011;14717;46.924;15.474;2023-04-25T14:46:02;2.05;;;0.93;;
27201;SDS011;14717;46.924;15.474;2023-04-25T14:48:28;3.00;;;0.90;;
27201;SDS011;14717;46.924;15.474;2023-04-25T14:50:54;2.33;;;0.73;;
27201;SDS011;14717;46.924;15.474;2023-04-25T14:53:21;2.33;;;0.73;;
27201;SDS011;14717;46.924;15.474;2023-04-25T14:55:47;1.52;;;0.90;;
27201;SDS011;14717;46.924;15.474;2023-04-25T14:58:13;2.28;;;1.30;;
27201;SDS011;14717;46.924;15.474;2023-04-25T15:00:38;2.22;;;0.80;;
27201;SDS011;14717;46.924;15.474;2023-04-25T15:03:04;1.13;;;0.90;;
27201;SDS011;14717;46.924;15.474;2023-04-25T15:05:29;1.77;;;1.00;;
27201;SDS011;14717;46.924;15.474;2023-04-25T15:07:54;1.58;;;0.60;;
27201;SDS011;14717;46.924;15.474;2023-04-25T15:10:20;1.77;;;0.80;;
27201;SDS011;14717;46.924;15.474;2023-04-25T15:12:47;1.85;;;1.13;;
27201;SDS011;14717;46.924;15.474;2023-04-25T15:15:12;2.83;;;1.35;;
27201;SDS011;14717;46.924;15.474;2023-04-25T15:17:38;7.05;;;3.35;;
27201;SDS011;14717;46.924;15.474;2023-04-25T15:20:06;7.22;;;3.05;;
27201;SDS011;14717;46.924;15.474;2023-04-25T15:22:32;5.28;;;2.28;;
27201;SDS011;14717;46.924;15.474;2023-04-25T15:24:58;6.43;;;2.95;;
27201;SDS011;14717;46.924;15.474;2023-04-25T15:27:23;5.15;;;1.88;;
27201;SDS011;14717;46.924;15.474;2023-04-25T15:29:49;9.73;;;3.78;;
27201;SDS011;14717;46.924;15.474;2023-04-25T15:32:14;7.22;;;2.60;;
27201;SDS011;14717;46.924;15.474;2023-04-25T15:34:40;3.50;;;1.55;;
27201;SDS011;14717;46.924;15.474;2023-04-25T15:37:05;2.22;;;1.00;;
27201;SDS011;14717;46.924;15.474;2023-04-25T15:39:31;1.55;;;1.00;;
27201;SDS011;14717;46.924;15.474;2023-04-25T15:41:56;3.13;;;1.33;;
27201;SDS011;14717;46.924;15.474;2023-04-25T15:44:23;2.38;;;1.33;;
27201;SDS011;14717;46.924;15.474;2023-04-25T15:46:48;3.17;;;1.35;;
27201;SDS011;14717;46.924;15.474;2023-04-25T15:49:14;1.92;;;1.02;;
27201;SDS011;14717;46.924;15.474;2023-04-25T15:51:39;3.97;;;1.30;;